Bridgehampton, New York
Current Conditions -  °F | °C
As of 5:53 AM on Friday 24 Oct 2014 (Local Time) from KFOK Reporting Station
Overcast Overcast  
Wind Chill: 52°   Ceiling: 3400
Heat Index: 52°   Visibility: 10mi
Dew Point: 46°   Wind: 13mph
Humidity: 80%   Direction: 320°NW
Pressure: 29.75"   Gusts: NA
Location:  40.94°N, 72.3°W
Report Text: KFOK 240953Z 32011KT 10SM FEW023 OVC034 11/08 A2975 RMK AO2 SLP072 T01110078
Loading
Personal Weather Stations






























Interactive Weather Map
Tropical Storm Tracking
New forecast layout! Learn more

10-Day Weather Forecast

Advertisements
Track Severe Weather on mobile